Archer, Nebraska
Current Conditions -  °F | °C
As of 6:53 PM on Sunday 21 Dec 2014 (Local Time) from KGRI Reporting Station
Overcast Overcast  
Wind Chill: 33°   Ceiling: 900
Heat Index: 40°   Visibility: 10mi
Dew Point: 37°   Wind: 13mph
Humidity: 89%   Direction: 170°S
Pressure: 29.59"   Gusts: NA
Location:  41.17°N, 98.14°W
Report Text: KGRI 220053Z 17011KT 10SM OVC009 04/03 A2959 RMK AO2 CIG 006V011 SLP036 T00440028
Loading
Personal Weather Stations






























Interactive Weather Map New forecast layout! Learn more

10-Day Weather Forecast

Advertisements
Track Severe Weather on mobile